sensor_id;sensor_type;location;lat;lon;timestamp;P1;P2;P0
64627;PMS5003;68467;50.960;0.314;2023-04-03T00:02:05;2;2;
64627;PMS5003;68467;50.960;0.314;2023-04-03T00:04:32;1;1;
64627;PMS5003;68467;50.960;0.314;2023-04-03T00:06:59;1;1;
64627;PMS5003;68467;50.960;0.314;2023-04-03T00:09:26;2;2;
64627;PMS5003;68467;50.960;0.314;2023-04-03T00:11:54;2;2;
64627;PMS5003;68467;50.960;0.314;2023-04-03T00:14:22;1;1;
64627;PMS5003;68467;50.960;0.314;2023-04-03T00:16:49;2;2;
64627;PMS5003;68467;50.960;0.314;2023-04-03T00:19:16;1;1;
64627;PMS5003;68467;50.960;0.314;2023-04-03T00:21:43;1;1;
64627;PMS5003;68467;50.960;0.314;2023-04-03T00:24:10;1;1;
64627;PMS5003;68467;50.960;0.314;2023-04-03T00:26:38;1;1;
64627;PMS5003;68467;50.960;0.314;2023-04-03T00:29:06;1;1;
64627;PMS5003;68467;50.960;0.314;2023-04-03T00:31:33;2;2;
64627;PMS5003;68467;50.960;0.314;2023-04-03T00:34:00;1;1;
64627;PMS5003;68467;50.960;0.314;2023-04-03T00:36:27;3;1;
64627;PMS5003;68467;50.960;0.314;2023-04-03T00:38:54;1;1;
64627;PMS5003;68467;50.960;0.314;2023-04-03T00:41:21;2;2;
64627;PMS5003;68467;50.960;0.314;2023-04-03T00:43:49;1;1;
64627;PMS5003;68467;50.960;0.314;2023-04-03T00:46:16;1;1;
64627;PMS5003;68467;50.960;0.314;2023-04-03T00:48:44;1;1;
64627;PMS5003;68467;50.960;0.314;2023-04-03T00:51:13;1;1;
64627;PMS5003;68467;50.960;0.314;2023-04-03T00:53:44;2;1;
64627;PMS5003;68467;50.960;0.314;2023-04-03T00:56:15;1;1;
64627;PMS5003;68467;50.960;0.314;2023-04-03T00:58:45;3;3;
64627;PMS5003;68467;50.960;0.314;2023-04-03T01:01:16;3;3;
64627;PMS5003;68467;50.960;0.314;2023-04-03T01:03:48;2;1;
64627;PMS5003;68467;50.960;0.314;2023-04-03T01:06:16;4;3;
64627;PMS5003;68467;50.960;0.314;2023-04-03T01:08:47;2;2;
64627;PMS5003;68467;50.960;0.314;2023-04-03T01:11:15;1;1;
64627;PMS5003;68467;50.960;0.314;2023-04-03T01:13:43;2;2;
64627;PMS5003;68467;50.960;0.314;2023-04-03T01:16:10;2;1;
64627;PMS5003;68467;50.960;0.314;2023-04-03T01:18:38;3;3;
64627;PMS5003;68467;50.960;0.314;2023-04-03T01:21:12;4;3;
64627;PMS5003;68467;50.960;0.314;2023-04-03T01:23:59;3;2;
64627;PMS5003;68467;50.960;0.314;2023-04-03T01:26:37;2;2;
64627;PMS5003;68467;50.960;0.314;2023-04-03T01:29:04;2;1;
64627;PMS5003;68467;50.960;0.314;2023-04-03T01:31:40;1;1;
64627;PMS5003;68467;50.960;0.314;2023-04-03T01:34:11;1;1;
64627;PMS5003;68467;50.960;0.314;2023-04-03T01:36:38;2;2;
64627;PMS5003;68467;50.960;0.314;2023-04-03T01:39:06;1;1;
64627;PMS5003;68467;50.960;0.314;2023-04-03T01:41:33;2;2;
64627;PMS5003;68467;50.960;0.314;2023-04-03T01:44:00;1;1;
64627;PMS5003;68467;50.960;0.314;2023-04-03T01:46:27;2;2;
64627;PMS5003;68467;50.960;0.314;2023-04-03T01:48:55;1;1;
64627;PMS5003;68467;50.960;0.314;2023-04-03T01:51:22;2;2;
64627;PMS5003;68467;50.960;0.314;2023-04-03T01:53:49;2;1;
64627;PMS5003;68467;50.960;0.314;2023-04-03T01:56:16;2;1;
64627;PMS5003;68467;50.960;0.314;2023-04-03T01:58:43;1;1;
64627;PMS5003;68467;50.960;0.314;2023-04-03T02:01:10;3;2;
64627;PMS5003;68467;50.960;0.314;2023-04-03T02:03:37;2;2;
64627;PMS5003;68467;50.960;0.314;2023-04-03T02:06:05;2;2;
64627;PMS5003;68467;50.960;0.314;2023-04-03T02:08:31;4;4;
64627;PMS5003;68467;50.960;0.314;2023-04-03T02:10:59;4;4;
64627;PMS5003;68467;50.960;0.314;2023-04-03T02:13:26;3;2;
64627;PMS5003;68467;50.960;0.314;2023-04-03T02:15:53;2;2;
64627;PMS5003;68467;50.960;0.314;2023-04-03T02:18:21;5;2;
64627;PMS5003;68467;50.960;0.314;2023-04-03T02:20:48;4;2;
64627;PMS5003;68467;50.960;0.314;2023-04-03T02:23:15;5;3;
64627;PMS5003;68467;50.960;0.314;2023-04-03T02:25:42;2;2;
64627;PMS5003;68467;50.960;0.314;2023-04-03T02:28:10;4;4;
64627;PMS5003;68467;50.960;0.314;2023-04-03T02:30:37;5;4;
64627;PMS5003;68467;50.960;0.314;2023-04-03T02:33:04;4;3;
64627;PMS5003;68467;50.960;0.314;2023-04-03T02:35:31;4;3;
64627;PMS5003;68467;50.960;0.314;2023-04-03T02:37:59;4;4;
64627;PMS5003;68467;50.960;0.314;2023-04-03T02:40:26;4;3;
64627;PMS5003;68467;50.960;0.314;2023-04-03T02:42:53;4;4;
64627;PMS5003;68467;50.960;0.314;2023-04-03T02:45:20;5;5;
64627;PMS5003;68467;50.960;0.314;2023-04-03T02:47:48;4;4;
64627;PMS5003;68467;50.960;0.314;2023-04-03T02:50:15;5;3;
64627;PMS5003;68467;50.960;0.314;2023-04-03T02:52:42;5;5;
64627;PMS5003;68467;50.960;0.314;2023-04-03T02:55:12;5;4;
64627;PMS5003;68467;50.960;0.314;2023-04-03T02:57:40;7;5;
64627;PMS5003;68467;50.960;0.314;2023-04-03T03:00:08;5;4;
64627;PMS5003;68467;50.960;0.314;2023-04-03T03:02:35;4;4;
64627;PMS5003;68467;50.960;0.314;2023-04-03T03:05:03;4;4;
64627;PMS5003;68467;50.960;0.314;2023-04-03T03:07:30;4;4;
64627;PMS5003;68467;50.960;0.314;2023-04-03T03:09:58;3;3;
64627;PMS5003;68467;50.960;0.314;2023-04-03T03:12:25;5;4;
64627;PMS5003;68467;50.960;0.314;2023-04-03T03:14:53;8;8;
64627;PMS5003;68467;50.960;0.314;2023-04-03T03:17:20;4;4;
64627;PMS5003;68467;50.960;0.314;2023-04-03T03:19:47;5;4;
64627;PMS5003;68467;50.960;0.314;2023-04-03T03:22:15;6;5;
64627;PMS5003;68467;50.960;0.314;2023-04-03T03:24:43;4;4;
64627;PMS5003;68467;50.960;0.314;2023-04-03T03:27:10;9;6;
64627;PMS5003;68467;50.960;0.314;2023-04-03T03:29:37;4;4;
64627;PMS5003;68467;50.960;0.314;2023-04-03T03:32:05;6;5;
64627;PMS5003;68467;50.960;0.314;2023-04-03T03:34:32;5;5;
64627;PMS5003;68467;50.960;0.314;2023-04-03T03:36:59;6;5;
64627;PMS5003;68467;50.960;0.314;2023-04-03T03:39:26;6;6;
64627;PMS5003;68467;50.960;0.314;2023-04-03T03:41:53;4;4;
64627;PMS5003;68467;50.960;0.314;2023-04-03T03:44:21;6;6;
64627;PMS5003;68467;50.960;0.314;2023-04-03T03:46:48;7;7;
64627;PMS5003;68467;50.960;0.314;2023-04-03T03:49:15;6;6;
64627;PMS5003;68467;50.960;0.314;2023-04-03T03:51:42;5;4;
64627;PMS5003;68467;50.960;0.314;2023-04-03T03:54:09;5;5;
64627;PMS5003;68467;50.960;0.314;2023-04-03T03:56:37;7;7;
64627;PMS5003;68467;50.960;0.314;2023-04-03T03:59:04;5;5;
64627;PMS5003;68467;50.960;0.314;2023-04-03T04:01:31;7;6;
64627;PMS5003;68467;50.960;0.314;2023-04-03T04:03:59;7;6;
64627;PMS5003;68467;50.960;0.314;2023-04-03T04:06:26;5;5;
64627;PMS5003;68467;50.960;0.314;2023-04-03T04:08:53;10;7;
64627;PMS5003;68467;50.960;0.314;2023-04-03T04:11:20;7;6;
64627;PMS5003;68467;50.960;0.314;2023-04-03T04:13:47;9;7;
64627;PMS5003;68467;50.960;0.314;2023-04-03T04:16:15;10;9;
64627;PMS5003;68467;50.960;0.314;2023-04-03T04:18:42;7;7;
64627;PMS5003;68467;50.960;0.314;2023-04-03T04:21:09;6;5;
64627;PMS5003;68467;50.960;0.314;2023-04-03T04:23:36;5;5;
64627;PMS5003;68467;50.960;0.314;2023-04-03T04:26:04;9;9;
64627;PMS5003;68467;50.960;0.314;2023-04-03T04:28:31;6;6;
64627;PMS5003;68467;50.960;0.314;2023-04-03T04:30:58;7;7;
64627;PMS5003;68467;50.960;0.314;2023-04-03T04:33:26;10;10;
64627;PMS5003;68467;50.960;0.314;2023-04-03T04:35:53;9;7;
64627;PMS5003;68467;50.960;0.314;2023-04-03T04:38:20;6;6;
64627;PMS5003;68467;50.960;0.314;2023-04-03T04:40:48;10;9;
64627;PMS5003;68467;50.960;0.314;2023-04-03T04:43:15;7;7;
64627;PMS5003;68467;50.960;0.314;2023-04-03T04:45:42;9;7;
64627;PMS5003;68467;50.960;0.314;2023-04-03T04:48:09;7;7;
64627;PMS5003;68467;50.960;0.314;2023-04-03T04:50:37;12;10;
64627;PMS5003;68467;50.960;0.314;2023-04-03T04:53:04;7;6;
64627;PMS5003;68467;50.960;0.314;2023-04-03T04:55:31;9;9;
64627;PMS5003;68467;50.960;0.314;2023-04-03T04:57:58;10;10;
64627;PMS5003;68467;50.960;0.314;2023-04-03T05:00:25;10;9;
64627;PMS5003;68467;50.960;0.314;2023-04-03T05:02:52;11;9;
64627;PMS5003;68467;50.960;0.314;2023-04-03T05:05:20;11;10;
64627;PMS5003;68467;50.960;0.314;2023-04-03T05:07:47;9;9;
64627;PMS5003;68467;50.960;0.314;2023-04-03T05:10:14;9;7;
64627;PMS5003;68467;50.960;0.314;2023-04-03T05:12:41;8;8;
64627;PMS5003;68467;50.960;0.314;2023-04-03T05:15:09;8;8;
64627;PMS5003;68467;50.960;0.314;2023-04-03T05:17:37;11;11;
64627;PMS5003;68467;50.960;0.314;2023-04-03T05:20:04;10;10;
64627;PMS5003;68467;50.960;0.314;2023-04-03T05:22:32;10;8;
64627;PMS5003;68467;50.960;0.314;2023-04-03T05:24:59;10;10;
64627;PMS5003;68467;50.960;0.314;2023-04-03T05:27:26;11;10;
64627;PMS5003;68467;50.960;0.314;2023-04-03T05:29:54;7;7;
64627;PMS5003;68467;50.960;0.314;2023-04-03T05:32:22;9;9;
64627;PMS5003;68467;50.960;0.314;2023-04-03T05:34:49;8;8;
64627;PMS5003;68467;50.960;0.314;2023-04-03T05:37:17;11;11;
64627;PMS5003;68467;50.960;0.314;2023-04-03T05:39:44;9;9;
64627;PMS5003;68467;50.960;0.314;2023-04-03T05:42:11;8;8;
64627;PMS5003;68467;50.960;0.314;2023-04-03T05:44:38;12;12;
64627;PMS5003;68467;50.960;0.314;2023-04-03T05:47:06;11;11;
64627;PMS5003;68467;50.960;0.314;2023-04-03T05:49:33;7;7;
64627;PMS5003;68467;50.960;0.314;2023-04-03T05:52:00;7;7;
64627;PMS5003;68467;50.960;0.314;2023-04-03T05:54:28;9;9;
64627;PMS5003;68467;50.960;0.314;2023-04-03T05:56:57;9;8;
64627;PMS5003;68467;50.960;0.314;2023-04-03T05:59:24;11;9;
64627;PMS5003;68467;50.960;0.314;2023-04-03T06:01:51;14;12;
64627;PMS5003;68467;50.960;0.314;2023-04-03T06:04:18;12;9;
64627;PMS5003;68467;50.960;0.314;2023-04-03T06:06:46;9;9;
64627;PMS5003;68467;50.960;0.314;2023-04-03T06:09:15;12;11;
64627;PMS5003;68467;50.960;0.314;2023-04-03T06:11:44;12;11;
64627;PMS5003;68467;50.960;0.314;2023-04-03T06:14:11;11;9;
64627;PMS5003;68467;50.960;0.314;2023-04-03T06:16:38;11;8;
64627;PMS5003;68467;50.960;0.314;2023-04-03T06:19:06;9;8;
64627;PMS5003;68467;50.960;0.314;2023-04-03T06:21:34;11;11;
64627;PMS5003;68467;50.960;0.314;2023-04-03T06:24:01;14;9;
64627;PMS5003;68467;50.960;0.314;2023-04-03T06:26:29;10;9;
64627;PMS5003;68467;50.960;0.314;2023-04-03T06:28:56;10;10;
64627;PMS5003;68467;50.960;0.314;2023-04-03T06:31:23;12;12;
64627;PMS5003;68467;50.960;0.314;2023-04-03T06:33:51;10;9;
64627;PMS5003;68467;50.960;0.314;2023-04-03T06:36:18;14;13;
64627;PMS5003;68467;50.960;0.314;2023-04-03T06:38:46;17;16;
64627;PMS5003;68467;50.960;0.314;2023-04-03T06:41:14;12;10;
64627;PMS5003;68467;50.960;0.314;2023-04-03T06:43:42;14;12;
64627;PMS5003;68467;50.960;0.314;2023-04-03T06:46:12;10;10;
64627;PMS5003;68467;50.960;0.314;2023-04-03T06:48:40;13;13;
64627;PMS5003;68467;50.960;0.314;2023-04-03T06:51:08;9;9;
64627;PMS5003;68467;50.960;0.314;2023-04-03T06:53:41;12;9;
64627;PMS5003;68467;50.960;0.314;2023-04-03T06:56:08;15;14;
64627;PMS5003;68467;50.960;0.314;2023-04-03T06:58:35;10;10;
64627;PMS5003;68467;50.960;0.314;2023-04-03T07:01:02;13;13;
64627;PMS5003;68467;50.960;0.314;2023-04-03T07:03:30;13;11;
64627;PMS5003;68467;50.960;0.314;2023-04-03T07:05:57;9;9;
64627;PMS5003;68467;50.960;0.314;2023-04-03T07:08:24;11;10;
64627;PMS5003;68467;50.960;0.314;2023-04-03T07:10:51;12;11;
64627;PMS5003;68467;50.960;0.314;2023-04-03T07:13:19;11;10;
64627;PMS5003;68467;50.960;0.314;2023-04-03T07:15:46;10;10;
64627;PMS5003;68467;50.960;0.314;2023-04-03T07:18:13;14;13;
64627;PMS5003;68467;50.960;0.314;2023-04-03T07:20:40;12;10;
64627;PMS5003;68467;50.960;0.314;2023-04-03T07:23:07;11;11;
64627;PMS5003;68467;50.960;0.314;2023-04-03T07:25:34;13;13;
64627;PMS5003;68467;50.960;0.314;2023-04-03T07:28:02;14;14;
64627;PMS5003;68467;50.960;0.314;2023-04-03T07:30:29;12;11;
64627;PMS5003;68467;50.960;0.314;2023-04-03T07:32:56;11;11;
64627;PMS5003;68467;50.960;0.314;2023-04-03T07:35:23;18;15;
64627;PMS5003;68467;50.960;0.314;2023-04-03T07:37:51;14;14;
64627;PMS5003;68467;50.960;0.314;2023-04-03T07:40:18;12;12;
64627;PMS5003;68467;50.960;0.314;2023-04-03T07:42:45;11;11;
64627;PMS5003;68467;50.960;0.314;2023-04-03T07:45:12;14;11;
64627;PMS5003;68467;50.960;0.314;2023-04-03T07:47:39;13;13;
64627;PMS5003;68467;50.960;0.314;2023-04-03T07:50:07;13;13;
64627;PMS5003;68467;50.960;0.314;2023-04-03T07:52:35;20;19;
64627;PMS5003;68467;50.960;0.314;2023-04-03T07:55:02;16;16;
64627;PMS5003;68467;50.960;0.314;2023-04-03T07:57:30;13;12;
64627;PMS5003;68467;50.960;0.314;2023-04-03T07:59:56;12;12;
64627;PMS5003;68467;50.960;0.314;2023-04-03T08:02:23;15;14;
64627;PMS5003;68467;50.960;0.314;2023-04-03T08:04:51;14;13;
64627;PMS5003;68467;50.960;0.314;2023-04-03T08:07:18;20;16;
64627;PMS5003;68467;50.960;0.314;2023-04-03T08:09:45;16;14;
64627;PMS5003;68467;50.960;0.314;2023-04-03T08:12:12;14;13;
64627;PMS5003;68467;50.960;0.314;2023-04-03T08:14:39;16;16;
64627;PMS5003;68467;50.960;0.314;2023-04-03T08:17:06;16;16;
64627;PMS5003;68467;50.960;0.314;2023-04-03T08:19:34;13;13;
64627;PMS5003;68467;50.960;0.314;2023-04-03T08:22:01;17;17;
64627;PMS5003;68467;50.960;0.314;2023-04-03T08:24:29;15;15;
64627;PMS5003;68467;50.960;0.314;2023-04-03T08:26:55;15;14;
64627;PMS5003;68467;50.960;0.314;2023-04-03T08:29:23;15;14;
64627;PMS5003;68467;50.960;0.314;2023-04-03T08:31:50;16;15;
64627;PMS5003;68467;50.960;0.314;2023-04-03T08:34:18;14;14;
64627;PMS5003;68467;50.960;0.314;2023-04-03T08:36:46;14;14;
64627;PMS5003;68467;50.960;0.314;2023-04-03T08:39:13;17;15;
64627;PMS5003;68467;50.960;0.314;2023-04-03T08:41:41;16;16;
64627;PMS5003;68467;50.960;0.314;2023-04-03T08:44:14;16;15;
64627;PMS5003;68467;50.960;0.314;2023-04-03T08:46:54;17;17;
64627;PMS5003;68467;50.960;0.314;2023-04-03T08:49:28;14;14;
64627;PMS5003;68467;50.960;0.314;2023-04-03T08:51:59;17;17;
64627;PMS5003;68467;50.960;0.314;2023-04-03T08:54:32;13;13;
64627;PMS5003;68467;50.960;0.314;2023-04-03T08:57:02;17;17;
64627;PMS5003;68467;50.960;0.314;2023-04-03T08:59:32;14;14;
64627;PMS5003;68467;50.960;0.314;2023-04-03T09:02:03;15;15;
64627;PMS5003;68467;50.960;0.314;2023-04-03T09:04:40;23;20;
64627;PMS5003;68467;50.960;0.314;2023-04-03T09:07:08;17;15;
64627;PMS5003;68467;50.960;0.314;2023-04-03T09:09:45;16;16;
64627;PMS5003;68467;50.960;0.314;2023-04-03T09:12:16;23;22;
64627;PMS5003;68467;50.960;0.314;2023-04-03T09:14:50;20;19;
64627;PMS5003;68467;50.960;0.314;2023-04-03T09:17:33;21;20;
64627;PMS5003;68467;50.960;0.314;2023-04-03T09:20:10;24;24;
64627;PMS5003;68467;50.960;0.314;2023-04-03T09:22:46;24;24;
64627;PMS5003;68467;50.960;0.314;2023-04-03T09:25:15;28;25;
64627;PMS5003;68467;50.960;0.314;2023-04-03T09:27:46;23;22;
64627;PMS5003;68467;50.960;0.314;2023-04-03T09:30:13;24;22;
64627;PMS5003;68467;50.960;0.314;2023-04-03T09:32:43;21;20;
64627;PMS5003;68467;50.960;0.314;2023-04-03T09:35:20;23;23;
64627;PMS5003;68467;50.960;0.314;2023-04-03T09:37:50;24;24;
64627;PMS5003;68467;50.960;0.314;2023-04-03T09:40:36;26;26;
64627;PMS5003;68467;50.960;0.314;2023-04-03T09:43:21;24;23;
64627;PMS5003;68467;50.960;0.314;2023-04-03T09:45:51;27;25;
64627;PMS5003;68467;50.960;0.314;2023-04-03T09:48:20;31;30;
64627;PMS5003;68467;50.960;0.314;2023-04-03T09:50:53;32;31;
64627;PMS5003;68467;50.960;0.314;2023-04-03T09:53:26;27;25;
64627;PMS5003;68467;50.960;0.314;2023-04-03T09:55:56;26;26;
64627;PMS5003;68467;50.960;0.314;2023-04-03T09:58:26;27;27;
64627;PMS5003;68467;50.960;0.314;2023-04-03T10:00:56;23;23;
64627;PMS5003;68467;50.960;0.314;2023-04-03T10:03:25;27;25;
64627;PMS5003;68467;50.960;0.314;2023-04-03T10:05:56;21;20;
64627;PMS5003;68467;50.960;0.314;2023-04-03T10:08:25;19;18;
64627;PMS5003;68467;50.960;0.314;2023-04-03T10:11:12;22;19;
64627;PMS5003;68467;50.960;0.314;2023-04-03T10:13:49;21;19;
64627;PMS5003;68467;50.960;0.314;2023-04-03T10:16:19;14;14;
64627;PMS5003;68467;50.960;0.314;2023-04-03T10:18:53;14;14;
64627;PMS5003;68467;50.960;0.314;2023-04-03T10:21:32;15;14;
64627;PMS5003;68467;50.960;0.314;2023-04-03T10:24:10;14;13;
64627;PMS5003;68467;50.960;0.314;2023-04-03T10:26:43;10;10;
64627;PMS5003;68467;50.960;0.314;2023-04-03T10:29:21;13;11;
64627;PMS5003;68467;50.960;0.314;2023-04-03T10:31:59;10;9;
64627;PMS5003;68467;50.960;0.314;2023-04-03T10:34:39;10;9;
64627;PMS5003;68467;50.960;0.314;2023-04-03T10:37:10;10;10;
64627;PMS5003;68467;50.960;0.314;2023-04-03T10:39:50;16;15;
64627;PMS5003;68467;50.960;0.314;2023-04-03T10:42:26;14;13;
64627;PMS5003;68467;50.960;0.314;2023-04-03T10:45:10;15;14;
64627;PMS5003;68467;50.960;0.314;2023-04-03T10:47:49;15;15;
64627;PMS5003;68467;50.960;0.314;2023-04-03T10:50:27;14;12;
64627;PMS5003;68467;50.960;0.314;2023-04-03T10:53:04;11;11;
64627;PMS5003;68467;50.960;0.314;2023-04-03T10:55:40;13;13;
64627;PMS5003;68467;50.960;0.314;2023-04-03T10:58:16;11;11;
64627;PMS5003;68467;50.960;0.314;2023-04-03T11:00:48;9;9;
64627;PMS5003;68467;50.960;0.314;2023-04-03T11:03:21;14;13;
64627;PMS5003;68467;50.960;0.314;2023-04-03T11:05:55;10;10;
64627;PMS5003;68467;50.960;0.314;2023-04-03T11:08:24;15;15;
64627;PMS5003;68467;50.960;0.314;2023-04-03T11:10:56;10;10;
64627;PMS5003;68467;50.960;0.314;2023-04-03T11:13:28;12;12;
64627;PMS5003;68467;50.960;0.314;2023-04-03T11:16:00;10;10;
64627;PMS5003;68467;50.960;0.314;2023-04-03T11:18:31;9;9;
64627;PMS5003;68467;50.960;0.314;2023-04-03T11:21:03;8;8;
64627;PMS5003;68467;50.960;0.314;2023-04-03T11:23:34;10;10;
64627;PMS5003;68467;50.960;0.314;2023-04-03T11:26:07;9;8;
64627;PMS5003;68467;50.960;0.314;2023-04-03T11:28:37;9;8;
64627;PMS5003;68467;50.960;0.314;2023-04-03T11:31:08;4;4;
64627;PMS5003;68467;50.960;0.314;2023-04-03T11:33:43;9;9;
64627;PMS5003;68467;50.960;0.314;2023-04-03T11:36:18;6;6;
64627;PMS5003;68467;50.960;0.314;2023-04-03T11:38:51;7;7;
64627;PMS5003;68467;50.960;0.314;2023-04-03T11:41:25;7;6;
64627;PMS5003;68467;50.960;0.314;2023-04-03T11:43:57;8;8;
64627;PMS5003;68467;50.960;0.314;2023-04-03T11:46:59;6;6;
64627;PMS5003;68467;50.960;0.314;2023-04-03T11:49:59;7;7;
64627;PMS5003;68467;50.960;0.314;2023-04-03T11:53:00;4;4;
64627;PMS5003;68467;50.960;0.314;2023-04-03T11:56:34;5;4;
64627;PMS5003;68467;50.960;0.314;2023-04-03T11:59:36;7;6;
64627;PMS5003;68467;50.960;0.314;2023-04-03T12:02:13;7;6;
64627;PMS5003;68467;50.960;0.314;2023-04-03T12:05:34;7;6;
64627;PMS5003;68467;50.960;0.314;2023-04-03T12:08:24;7;7;
64627;PMS5003;68467;50.960;0.314;2023-04-03T12:11:25;8;7;
64627;PMS5003;68467;50.960;0.314;2023-04-03T12:14:02;8;7;
64627;PMS5003;68467;50.960;0.314;2023-04-03T12:16:32;5;5;
64627;PMS5003;68467;50.960;0.314;2023-04-03T12:19:27;6;6;
64627;PMS5003;68467;50.960;0.314;2023-04-03T12:22:08;6;6;
64627;PMS5003;68467;50.960;0.314;2023-04-03T12:24:39;7;6;
64627;PMS5003;68467;50.960;0.314;2023-04-03T12:27:13;7;7;
64627;PMS5003;68467;50.960;0.314;2023-04-03T12:29:47;5;5;
64627;PMS5003;68467;50.960;0.314;2023-04-03T12:32:26;6;5;
64627;PMS5003;68467;50.960;0.314;2023-04-03T12:35:06;7;7;
64627;PMS5003;68467;50.960;0.314;2023-04-03T12:37:48;6;6;
64627;PMS5003;68467;50.960;0.314;2023-04-03T12:41:28;7;7;
64627;PMS5003;68467;50.960;0.314;2023-04-03T12:44:22;7;6;
64627;PMS5003;68467;50.960;0.314;2023-04-03T12:47:02;7;6;
64627;PMS5003;68467;50.960;0.314;2023-04-03T12:49:42;8;7;
64627;PMS5003;68467;50.960;0.314;2023-04-03T12:52:16;7;7;
64627;PMS5003;68467;50.960;0.314;2023-04-03T12:54:48;7;7;
64627;PMS5003;68467;50.960;0.314;2023-04-03T12:57:17;7;7;
64627;PMS5003;68467;50.960;0.314;2023-04-03T12:59:45;7;7;
64627;PMS5003;68467;50.960;0.314;2023-04-03T13:02:17;8;6;
64627;PMS5003;68467;50.960;0.314;2023-04-03T13:04:48;8;8;
64627;PMS5003;68467;50.960;0.314;2023-04-03T13:07:20;5;4;
64627;PMS5003;68467;50.960;0.314;2023-04-03T13:09:58;7;7;
64627;PMS5003;68467;50.960;0.314;2023-04-03T13:12:27;7;7;
64627;PMS5003;68467;50.960;0.314;2023-04-03T13:14:56;7;6;
64627;PMS5003;68467;50.960;0.314;2023-04-03T13:17:26;6;6;
64627;PMS5003;68467;50.960;0.314;2023-04-03T13:19:54;7;5;
64627;PMS5003;68467;50.960;0.314;2023-04-03T13:22:24;7;7;
64627;PMS5003;68467;50.960;0.314;2023-04-03T13:25:03;6;6;
64627;PMS5003;68467;50.960;0.314;2023-04-03T13:27:33;7;7;
64627;PMS5003;68467;50.960;0.314;2023-04-03T13:30:02;5;5;
64627;PMS5003;68467;50.960;0.314;2023-04-03T13:32:31;6;6;
64627;PMS5003;68467;50.960;0.314;2023-04-03T13:34:58;8;7;
64627;PMS5003;68467;50.960;0.314;2023-04-03T13:37:26;6;6;
64627;PMS5003;68467;50.960;0.314;2023-04-03T13:39:57;8;8;
64627;PMS5003;68467;50.960;0.314;2023-04-03T13:42:28;5;5;
64627;PMS5003;68467;50.960;0.314;2023-04-03T13:45:30;8;7;
64627;PMS5003;68467;50.960;0.314;2023-04-03T13:48:16;4;4;
64627;PMS5003;68467;50.960;0.314;2023-04-03T13:50:50;10;8;
64627;PMS5003;68467;50.960;0.314;2023-04-03T13:53:21;7;7;
64627;PMS5003;68467;50.960;0.314;2023-04-03T13:55:53;11;9;
64627;PMS5003;68467;50.960;0.314;2023-04-03T13:58:24;9;8;
64627;PMS5003;68467;50.960;0.314;2023-04-03T14:00:53;7;7;
64627;PMS5003;68467;50.960;0.314;2023-04-03T14:03:23;8;7;
64627;PMS5003;68467;50.960;0.314;2023-04-03T14:05:52;8;7;
64627;PMS5003;68467;50.960;0.314;2023-04-03T14:08:20;7;7;
64627;PMS5003;68467;50.960;0.314;2023-04-03T14:10:48;8;7;
64627;PMS5003;68467;50.960;0.314;2023-04-03T14:13:17;7;7;
64627;PMS5003;68467;50.960;0.314;2023-04-03T14:15:46;8;8;
64627;PMS5003;68467;50.960;0.314;2023-04-03T14:18:15;7;7;
64627;PMS5003;68467;50.960;0.314;2023-04-03T14:20:44;7;7;
64627;PMS5003;68467;50.960;0.314;2023-04-03T14:23:12;7;7;
64627;PMS5003;68467;50.960;0.314;2023-04-03T14:25:39;10;10;
64627;PMS5003;68467;50.960;0.314;2023-04-03T14:28:12;7;7;
64627;PMS5003;68467;50.960;0.314;2023-04-03T14:30:42;7;7;
64627;PMS5003;68467;50.960;0.314;2023-04-03T14:33:11;7;7;
64627;PMS5003;68467;50.960;0.314;2023-04-03T14:35:42;6;6;
64627;PMS5003;68467;50.960;0.314;2023-04-03T14:38:12;7;7;
64627;PMS5003;68467;50.960;0.314;2023-04-03T14:40:49;6;6;
64627;PMS5003;68467;50.960;0.314;2023-04-03T14:43:17;7;7;
64627;PMS5003;68467;50.960;0.314;2023-04-03T14:45:45;8;8;
64627;PMS5003;68467;50.960;0.314;2023-04-03T14:48:15;7;7;
64627;PMS5003;68467;50.960;0.314;2023-04-03T14:50:46;8;7;
64627;PMS5003;68467;50.960;0.314;2023-04-03T14:53:14;9;8;
64627;PMS5003;68467;50.960;0.314;2023-04-03T14:55:44;6;6;
64627;PMS5003;68467;50.960;0.314;2023-04-03T14:58:13;6;6;
64627;PMS5003;68467;50.960;0.314;2023-04-03T15:00:41;7;7;
64627;PMS5003;68467;50.960;0.314;2023-04-03T15:03:12;7;7;
64627;PMS5003;68467;50.960;0.314;2023-04-03T15:05:40;9;8;
64627;PMS5003;68467;50.960;0.314;2023-04-03T15:08:13;8;8;
64627;PMS5003;68467;50.960;0.314;2023-04-03T15:10:45;9;9;
64627;PMS5003;68467;50.960;0.314;2023-04-03T15:13:12;8;8;
64627;PMS5003;68467;50.960;0.314;2023-04-03T15:15:40;8;8;
64627;PMS5003;68467;50.960;0.314;2023-04-03T15:18:10;10;8;
64627;PMS5003;68467;50.960;0.314;2023-04-03T15:20:42;7;7;
64627;PMS5003;68467;50.960;0.314;2023-04-03T15:23:10;9;9;
64627;PMS5003;68467;50.960;0.314;2023-04-03T15:25:39;10;10;
64627;PMS5003;68467;50.960;0.314;2023-04-03T15:28:06;7;7;
64627;PMS5003;68467;50.960;0.314;2023-04-03T15:30:39;8;8;
64627;PMS5003;68467;50.960;0.314;2023-04-03T15:33:06;10;9;
64627;PMS5003;68467;50.960;0.314;2023-04-03T15:35:33;10;10;
64627;PMS5003;68467;50.960;0.314;2023-04-03T15:38:00;11;10;
64627;PMS5003;68467;50.960;0.314;2023-04-03T15:40:27;11;11;
64627;PMS5003;68467;50.960;0.314;2023-04-03T15:42:54;10;10;
64627;PMS5003;68467;50.960;0.314;2023-04-03T15:45:21;9;9;
64627;PMS5003;68467;50.960;0.314;2023-04-03T15:47:49;9;9;
64627;PMS5003;68467;50.960;0.314;2023-04-03T15:50:18;9;9;
64627;PMS5003;68467;50.960;0.314;2023-04-03T15:52:44;11;10;
64627;PMS5003;68467;50.960;0.314;2023-04-03T15:55:12;11;11;
64627;PMS5003;68467;50.960;0.314;2023-04-03T15:57:39;12;12;
64627;PMS5003;68467;50.960;0.314;2023-04-03T16:00:07;9;8;
64627;PMS5003;68467;50.960;0.314;2023-04-03T16:02:34;8;8;
64627;PMS5003;68467;50.960;0.314;2023-04-03T16:05:02;8;7;
64627;PMS5003;68467;50.960;0.314;2023-04-03T16:07:30;8;8;
64627;PMS5003;68467;50.960;0.314;2023-04-03T16:09:57;12;11;
64627;PMS5003;68467;50.960;0.314;2023-04-03T16:12:24;9;9;
64627;PMS5003;68467;50.960;0.314;2023-04-03T16:14:51;10;9;
64627;PMS5003;68467;50.960;0.314;2023-04-03T16:17:18;9;9;
64627;PMS5003;68467;50.960;0.314;2023-04-03T16:19:45;8;7;
64627;PMS5003;68467;50.960;0.314;2023-04-03T16:22:12;7;7;
64627;PMS5003;68467;50.960;0.314;2023-04-03T16:24:39;7;7;
64627;PMS5003;68467;50.960;0.314;2023-04-03T16:27:06;8;8;
64627;PMS5003;68467;50.960;0.314;2023-04-03T16:29:33;12;11;
64627;PMS5003;68467;50.960;0.314;2023-04-03T16:32:01;8;8;
64627;PMS5003;68467;50.960;0.314;2023-04-03T16:34:29;9;9;
64627;PMS5003;68467;50.960;0.314;2023-04-03T16:36:56;7;7;
64627;PMS5003;68467;50.960;0.314;2023-04-03T16:39:23;8;8;
64627;PMS5003;68467;50.960;0.314;2023-04-03T16:41:50;8;8;
64627;PMS5003;68467;50.960;0.314;2023-04-03T16:44:17;9;8;
64627;PMS5003;68467;50.960;0.314;2023-04-03T16:46:44;8;7;
64627;PMS5003;68467;50.960;0.314;2023-04-03T16:49:12;7;7;
64627;PMS5003;68467;50.960;0.314;2023-04-03T16:51:39;8;8;
64627;PMS5003;68467;50.960;0.314;2023-04-03T16:54:06;7;7;
64627;PMS5003;68467;50.960;0.314;2023-04-03T16:56:33;6;6;
64627;PMS5003;68467;50.960;0.314;2023-04-03T16:59:00;7;7;
64627;PMS5003;68467;50.960;0.314;2023-04-03T17:01:27;7;7;